Cynthiana, Indiana
Current Conditions -  °F | °C
As of 11:39 PM on Wednesday 26 Nov 2014 (Local Time) from KEVV Reporting Station
Light Snow Light Snow  
Wind Chill: 28°   Ceiling: 1400
Heat Index: 34°   Visibility: 1.7mi
Dew Point: 31°   Wind: 7mph
Humidity: 89%   Direction: 350°N
Pressure: 30.12"   Gusts: NA
Location:  38.19°N, 87.71°W
Report Text: KEVV 270539Z AUTO 35006KT 1 3/4SM -SN BR SCT005 OVC014 01/M01 A3012 RMK AO2 P0001 T00111006
Loading
Personal Weather Stations






























Interactive Weather Map New forecast layout! Learn more

10-Day Weather Forecast

Advertisements
Track Severe Weather on mobile